createdAt,value
2019-04-27T00:02:36.672Z,76.70
2019-04-27T00:05:20.164Z,76.70
2019-04-27T00:07:59.243Z,77.50
2019-04-27T00:13:15.256Z,76.40
2019-04-27T00:16:09.353Z,76.00
2019-04-27T00:21:29.496Z,76.50
2019-04-27T00:23:57.351Z,80.10
2019-04-27T00:26:24.189Z,76.80
2019-04-27T00:28:51.028Z,76.90
2019-04-27T00:31:17.867Z,77.40
2019-04-27T00:33:44.712Z,77.50
2019-04-27T00:36:15.987Z,77.60
2019-04-27T00:38:44.632Z,77.50
2019-04-27T00:41:14.230Z,77.20
2019-04-27T00:43:42.741Z,77.60
2019-04-27T00:46:10.085Z,77.60
2019-04-27T00:48:36.925Z,77.80
2019-04-27T00:51:04.367Z,77.80
2019-04-27T00:53:31.420Z,78.30
2019-04-27T00:59:13.728Z,78.60
2019-04-27T01:01:43.604Z,78.70
2019-04-27T01:04:15.508Z,79.40
2019-04-27T01:06:43.755Z,79.10
2019-04-27T01:09:13.439Z,78.80
2019-04-27T01:11:40.309Z,78.90
2019-04-27T01:14:07.137Z,79.20
2019-04-27T01:16:33.991Z,79.20
2019-04-27T01:19:00.937Z,79.40
2019-04-27T01:21:29.420Z,79.40
2019-04-27T01:23:56.355Z,79.40
2019-04-27T01:26:25.032Z,79.20
2019-04-27T01:28:53.802Z,79.40
2019-04-27T01:31:22.835Z,79.40
2019-04-27T01:33:49.711Z,79.50
2019-04-27T01:36:16.656Z,79.60
2019-04-27T01:38:43.519Z,79.70
2019-04-27T01:41:10.363Z,79.80
2019-04-27T01:43:38.704Z,80.20
2019-04-27T01:46:05.651Z,80.80
2019-04-27T01:48:32.526Z,80.70
2019-04-27T01:50:59.443Z,79.90
2019-04-27T01:53:26.216Z,79.20
2019-04-27T01:56:06.150Z,79.40
2019-04-27T01:58:33.108Z,79.90
2019-04-27T02:01:19.932Z,79.80
2019-04-27T02:03:48.950Z,80.10
2019-04-27T02:06:15.927Z,80.10
2019-04-27T02:08:42.889Z,80.20
2019-04-27T02:11:10.957Z,80.10
2019-04-27T02:13:38.856Z,80.20
2019-04-27T02:16:06.015Z,79.90
2019-04-27T02:18:37.614Z,80.20
2019-04-27T02:21:01.541Z,80.50
2019-04-27T02:23:29.332Z,80.60
2019-04-27T02:25:56.348Z,81.80
2019-04-27T02:28:24.986Z,81.20
2019-04-27T02:31:05.828Z,81.00
2019-04-27T02:36:26.358Z,79.90
2019-04-27T02:38:53.087Z,81.00
2019-04-27T02:41:20.066Z,80.80
2019-04-27T02:43:51.503Z,80.90
2019-04-27T02:46:20.008Z,81.00
2019-04-27T02:48:59.012Z,81.40
2019-04-27T02:51:17.337Z,81.10
2019-04-27T02:53:54.024Z,80.90
2019-04-27T02:56:21.466Z,81.20
2019-04-27T02:58:49.684Z,81.60
2019-04-27T03:01:16.885Z,81.50
2019-04-27T03:03:43.720Z,81.50
2019-04-27T03:06:10.552Z,81.50
2019-04-27T03:08:39.429Z,81.40
2019-04-27T03:11:05.951Z,81.70
2019-04-27T03:13:40.544Z,81.70
2019-04-27T03:16:26.139Z,82.00
2019-04-27T03:22:00.558Z,82.10
2019-04-27T03:24:35.023Z,82.10
2019-04-27T03:27:03.576Z,82.20
2019-04-27T03:29:30.703Z,82.40
2019-04-27T03:32:01.601Z,82.40
2019-04-27T03:34:26.428Z,82.40
2019-04-27T03:36:53.312Z,82.30
2019-04-27T03:39:20.157Z,82.30
2019-04-27T03:41:50.185Z,82.90
2019-04-27T03:44:15.683Z,82.70
2019-04-27T03:46:42.573Z,82.80
2019-04-27T03:49:09.868Z,82.90
2019-04-27T03:51:41.629Z,83.00
2019-04-27T03:54:26.652Z,83.50
2019-04-27T03:56:55.326Z,83.10
2019-04-27T03:59:24.055Z,82.70
2019-04-27T04:01:50.900Z,82.20
2019-04-27T04:04:19.546Z,82.80
2019-04-27T04:06:46.535Z,83.10
2019-04-27T04:09:29.619Z,81.40
2019-04-27T04:11:59.161Z,81.20
2019-04-27T04:14:26.896Z,81.20
2019-04-27T04:17:15.449Z,81.80
2019-04-27T04:19:54.471Z,80.30
2019-04-27T04:22:11.131Z,78.90
2019-04-27T04:24:39.714Z,78.00
2019-04-27T04:27:06.684Z,78.20
2019-04-27T04:29:33.621Z,78.10
2019-04-27T04:32:00.657Z,77.50
2019-04-27T04:34:29.710Z,77.40
2019-04-27T04:36:56.072Z,76.10
2019-04-27T04:39:22.900Z,73.10
2019-04-27T04:41:51.572Z,71.40
2019-04-27T04:44:20.477Z,70.10
2019-04-27T04:46:55.291Z,67.60
2019-04-27T04:49:22.282Z,67.80
2019-04-27T04:51:50.410Z,68.90
2019-04-27T04:54:19.882Z,66.30
2019-04-27T04:56:46.463Z,65.60
2019-04-27T04:59:13.325Z,65.40
2019-04-27T05:01:40.261Z,64.60
2019-04-27T05:04:09.009Z,64.50
2019-04-27T05:06:35.991Z,64.40
2019-04-27T05:09:04.357Z,64.70
2019-04-27T05:11:31.588Z,64.00
2019-04-27T05:13:59.371Z,63.40
2019-04-27T05:16:28.656Z,62.40
2019-04-27T05:18:55.633Z,62.60
2019-04-27T05:24:10.716Z,63.10
2019-04-27T05:26:39.586Z,63.30
2019-04-27T05:29:06.445Z,63.10
2019-04-27T05:31:33.288Z,63.40
2019-04-27T05:34:00.256Z,63.50
2019-04-27T05:36:27.227Z,63.80
2019-04-27T05:38:54.119Z,63.70
2019-04-27T05:41:20.894Z,63.00
2019-04-27T05:43:59.203Z,63.90
2019-04-27T05:46:31.274Z,63.50
2019-04-27T05:48:59.913Z,63.60
2019-04-27T05:51:36.721Z,63.60
2019-04-27T05:53:55.822Z,64.00
2019-04-27T05:56:22.688Z,61.50
2019-04-27T05:58:51.258Z,59.10
2019-04-27T06:01:19.573Z,59.20
2019-04-27T06:03:46.725Z,61.50
2019-04-27T06:06:13.596Z,62.10
2019-04-27T06:08:40.328Z,62.20
2019-04-27T06:11:07.096Z,60.60
2019-04-27T06:13:33.929Z,59.10
2019-04-27T06:16:00.789Z,54.10
2019-04-27T06:18:29.161Z,52.30
2019-04-27T06:20:56.191Z,51.80
2019-04-27T06:23:23.008Z,51.10
2019-04-27T06:25:49.992Z,52.70
2019-04-27T06:28:16.728Z,51.40
2019-04-27T06:30:43.599Z,50.70
2019-04-27T06:33:10.584Z,50.90
2019-04-27T06:35:57.262Z,49.80
2019-04-27T06:38:24.136Z,50.90
2019-04-27T06:40:51.100Z,49.80
2019-04-27T06:43:18.885Z,50.00
2019-04-27T06:45:45.975Z,49.70
2019-04-27T06:48:12.732Z,49.50
2019-04-27T06:50:39.575Z,50.00
2019-04-27T06:53:06.532Z,49.40
2019-04-27T06:55:33.422Z,49.10
2019-04-27T06:58:00.365Z,48.80
2019-04-27T07:00:28.768Z,49.50
2019-04-27T07:02:55.778Z,49.00
2019-04-27T07:05:22.639Z,48.80
2019-04-27T07:07:49.387Z,48.40
2019-04-27T07:10:16.351Z,47.00
2019-04-27T07:12:43.172Z,46.20
2019-04-27T07:15:10.021Z,46.10
2019-04-27T07:17:38.681Z,47.20
2019-04-27T07:20:05.517Z,47.40
2019-04-27T07:22:32.363Z,47.00
2019-04-27T07:24:59.336Z,45.70
2019-04-27T07:27:26.342Z,45.30
2019-04-27T07:29:53.665Z,42.20
2019-04-27T07:32:20.719Z,42.30
2019-04-27T07:34:47.582Z,42.80
2019-04-27T07:37:14.448Z,43.40
2019-04-27T07:39:41.423Z,45.40
2019-04-27T07:42:08.590Z,41.00
2019-04-27T07:44:38.951Z,42.20
2019-04-27T07:47:16.547Z,41.40
2019-04-27T07:49:44.488Z,40.50
2019-04-27T07:52:24.577Z,42.00
2019-04-27T07:54:51.552Z,42.90
2019-04-27T07:57:19.734Z,42.20
2019-04-27T07:59:46.987Z,39.10
2019-04-27T08:02:13.827Z,39.60
2019-04-27T08:04:40.583Z,39.30
2019-04-27T08:07:09.030Z,36.60
2019-04-27T08:09:35.988Z,38.30
2019-04-27T08:12:02.925Z,37.90
2019-04-27T08:14:29.788Z,34.70
2019-04-27T08:16:58.573Z,38.70
2019-04-27T08:19:25.424Z,37.90
2019-04-27T08:21:52.389Z,36.10
2019-04-27T08:24:19.508Z,33.90
2019-04-27T08:26:54.204Z,34.30
2019-04-27T08:29:39.380Z,35.30
2019-04-27T08:32:09.721Z,35.90
2019-04-27T08:34:39.685Z,32.80
2019-04-27T08:37:08.746Z,32.40
2019-04-27T08:39:35.671Z,32.80
2019-04-27T08:42:02.437Z,34.20
2019-04-27T08:44:31.620Z,32.50
2019-04-27T08:46:59.538Z,36.50
2019-04-27T08:49:26.658Z,28.90
2019-04-27T08:51:59.147Z,34.30
2019-04-27T08:54:22.168Z,33.10
2019-04-27T08:56:49.414Z,32.50
2019-04-27T08:59:16.668Z,27.80
2019-04-27T09:01:43.636Z,29.00
2019-04-27T09:04:11.290Z,28.60
2019-04-27T09:06:40.605Z,29.60
2019-04-27T09:09:14.900Z,31.70
2019-04-27T09:11:46.144Z,29.10
2019-04-27T09:14:14.812Z,30.40
2019-04-27T09:16:57.947Z,28.80
2019-04-27T09:19:20.216Z,27.30
2019-04-27T09:22:13.388Z,25.50
2019-04-27T09:24:34.240Z,30.00
2019-04-27T09:27:01.185Z,25.90
2019-04-27T09:29:29.862Z,26.90
2019-04-27T09:31:56.576Z,25.40
2019-04-27T09:34:23.495Z,27.00
2019-04-27T09:36:50.333Z,27.30
2019-04-27T09:39:17.291Z,25.50
2019-04-27T09:41:44.127Z,24.70
2019-04-27T09:44:11.013Z,27.20
2019-04-27T09:46:37.868Z,25.50
2019-04-27T09:49:04.819Z,25.00
2019-04-27T09:51:31.652Z,23.80
2019-04-27T09:53:58.626Z,24.00
2019-04-27T09:56:26.142Z,25.90
2019-04-27T09:58:53.141Z,25.00
2019-04-27T10:01:20.088Z,26.40
2019-04-27T10:03:47.048Z,21.00
2019-04-27T10:06:14.081Z,22.10
2019-04-27T10:08:40.844Z,23.20
2019-04-27T10:11:07.836Z,24.40
2019-04-27T10:13:36.396Z,22.90
2019-04-27T10:16:04.044Z,21.70
2019-04-27T10:18:31.001Z,21.50
2019-04-27T10:21:01.904Z,21.20
2019-04-27T10:23:26.732Z,22.30
2019-04-27T10:25:53.468Z,19.90
2019-04-27T10:28:20.216Z,20.80
2019-04-27T10:30:47.050Z,21.50
2019-04-27T10:33:15.975Z,21.00
2019-04-27T10:35:42.423Z,22.70
2019-04-27T10:38:09.723Z,20.00
2019-04-27T10:40:36.679Z,25.90
2019-04-27T10:43:06.050Z,20.50
2019-04-27T10:45:32.938Z,21.90
2019-04-27T10:48:01.085Z,20.10
2019-04-27T10:50:27.925Z,20.70
2019-04-27T10:52:56.774Z,18.90
2019-04-27T10:55:23.550Z,21.50
2019-04-27T10:57:50.511Z,19.60
2019-04-27T11:00:19.760Z,19.80
2019-04-27T11:02:46.374Z,19.30
2019-04-27T11:05:21.939Z,20.60
2019-04-27T11:07:50.155Z,20.00
2019-04-27T11:10:17.082Z,20.50
2019-04-27T11:12:45.794Z,20.40
2019-04-27T11:15:12.812Z,19.90
2019-04-27T11:17:41.473Z,20.00
2019-04-27T11:20:08.233Z,19.70
2019-04-27T11:22:36.404Z,21.10
2019-04-27T11:25:06.324Z,19.10
2019-04-27T11:27:33.194Z,21.40
2019-04-27T11:30:00.080Z,21.00
2019-04-27T11:32:26.972Z,20.50
2019-04-27T11:35:05.737Z,25.00
2019-04-27T11:37:37.387Z,28.50
2019-04-27T11:40:09.589Z,28.50
2019-04-27T11:42:36.798Z,29.40
2019-04-27T11:45:08.005Z,24.20
2019-04-27T11:47:36.383Z,25.90
2019-04-27T11:50:06.304Z,26.60
2019-04-27T11:52:33.236Z,28.30
2019-04-27T11:54:59.987Z,27.50
2019-04-27T11:57:26.935Z,28.90
2019-04-27T11:59:53.882Z,29.20
2019-04-27T12:02:20.731Z,30.20
2019-04-27T12:04:47.591Z,29.70
2019-04-27T12:07:14.576Z,29.20
2019-04-27T12:09:41.441Z,28.60
2019-04-27T12:12:13.583Z,31.40
2019-04-27T12:14:37.124Z,31.10
2019-04-27T12:17:03.960Z,30.30
2019-04-27T12:19:30.860Z,29.20
2019-04-27T12:21:57.809Z,28.90
2019-04-27T12:24:24.608Z,29.70
2019-04-27T12:27:00.916Z,30.90
2019-04-27T12:32:15.617Z,27.10
2019-04-27T12:34:42.543Z,27.70
2019-04-27T12:37:09.288Z,29.70
2019-04-27T12:39:36.248Z,27.60
2019-04-27T12:42:03.189Z,28.30
2019-04-27T12:44:30.043Z,31.40
2019-04-27T12:47:02.288Z,29.80
2019-04-27T12:49:26.178Z,28.40
2019-04-27T12:51:53.353Z,27.50
2019-04-27T12:54:26.208Z,29.80
2019-04-27T12:56:55.859Z,28.60
2019-04-27T12:59:44.023Z,31.80
2019-04-27T13:02:10.643Z,31.30
2019-04-27T13:04:38.397Z,29.10
2019-04-27T13:07:05.983Z,29.50
2019-04-27T13:09:33.143Z,30.50
2019-04-27T13:12:00.002Z,31.90
2019-04-27T13:14:26.844Z,32.20
2019-04-27T13:16:53.681Z,32.90
2019-04-27T13:19:20.688Z,33.60
2019-04-27T13:22:07.264Z,30.90
2019-04-27T13:24:35.592Z,33.80
2019-04-27T13:27:02.880Z,32.40
2019-04-27T13:29:29.738Z,34.90
2019-04-27T13:31:57.733Z,33.60
2019-04-27T13:34:24.736Z,33.70
2019-04-27T13:37:30.061Z,32.50
2019-04-27T13:40:06.060Z,29.80
2019-04-27T13:43:03.795Z,32.60
2019-04-27T13:45:32.671Z,34.70
2019-04-27T13:48:17.769Z,34.00
2019-04-27T13:53:28.748Z,36.20
2019-04-27T13:56:15.011Z,37.50
2019-04-27T13:58:43.800Z,38.60
2019-04-27T14:01:10.864Z,36.90
2019-04-27T14:03:38.149Z,38.10
2019-04-27T14:06:05.032Z,38.00
2019-04-27T14:08:31.881Z,37.10
2019-04-27T14:11:01.090Z,37.30
2019-04-27T14:13:28.669Z,37.90
2019-04-27T14:15:55.899Z,37.30
2019-04-27T14:18:22.991Z,38.50
2019-04-27T14:20:49.768Z,39.60
2019-04-27T14:23:18.818Z,36.50
2019-04-27T14:25:46.092Z,36.70
2019-04-27T14:28:12.932Z,36.90
2019-04-27T14:30:40.092Z,33.50
2019-04-27T14:33:08.484Z,35.90
2019-04-27T14:35:35.700Z,37.50
2019-04-27T14:38:02.640Z,37.30
2019-04-27T14:40:29.610Z,37.60
2019-04-27T14:42:56.657Z,38.30
2019-04-27T14:45:23.635Z,38.30
2019-04-27T14:47:50.369Z,37.50
2019-04-27T14:50:18.713Z,38.70
2019-04-27T14:52:59.117Z,38.70
2019-04-27T14:55:26.046Z,38.10
2019-04-27T14:57:52.901Z,39.50
2019-04-27T15:00:21.570Z,38.30
2019-04-27T15:02:49.036Z,38.10
2019-04-27T15:05:16.299Z,39.50
2019-04-27T15:07:44.556Z,38.70
2019-04-27T15:10:11.639Z,39.10
2019-04-27T15:12:38.355Z,39.20
2019-04-27T15:15:06.827Z,38.10
2019-04-27T15:17:34.267Z,39.90
2019-04-27T15:20:15.659Z,40.10
2019-04-27T15:22:43.052Z,41.30
2019-04-27T15:25:15.244Z,39.30
2019-04-27T15:27:44.994Z,39.70
2019-04-27T15:30:14.374Z,40.70
2019-04-27T15:35:30.312Z,40.80
2019-04-27T15:38:05.008Z,41.20
2019-04-27T15:40:31.987Z,43.50
2019-04-27T15:43:00.535Z,43.40
2019-04-27T15:45:28.577Z,43.10
2019-04-27T15:47:55.839Z,43.50
2019-04-27T15:50:23.429Z,43.90
2019-04-27T15:52:51.465Z,40.40
2019-04-27T15:55:31.705Z,40.40
2019-04-27T15:57:48.745Z,42.70
2019-04-27T16:00:20.883Z,41.30
2019-04-27T16:02:49.290Z,40.10
2019-04-27T16:05:16.979Z,40.90
2019-04-27T16:07:44.252Z,42.30
2019-04-27T16:10:11.081Z,39.60
2019-04-27T16:12:38.995Z,42.00
2019-04-27T16:15:08.101Z,43.50
2019-04-27T16:17:34.966Z,44.10
2019-04-27T16:20:01.916Z,43.30
2019-04-27T16:22:28.873Z,42.60
2019-04-27T16:24:55.815Z,41.70
2019-04-27T16:27:25.805Z,43.60
2019-04-27T16:30:09.823Z,43.70
2019-04-27T16:32:32.914Z,43.70
2019-04-27T16:34:59.896Z,43.60
2019-04-27T16:37:28.586Z,43.10
2019-04-27T16:39:55.855Z,44.20
2019-04-27T16:42:22.728Z,42.60
2019-04-27T16:44:53.118Z,42.80
2019-04-27T16:47:24.150Z,43.70
2019-04-27T16:49:48.333Z,44.00
2019-04-27T16:52:16.107Z,43.80
2019-04-27T16:54:44.210Z,44.80
2019-04-27T16:57:11.171Z,44.50
2019-04-27T16:59:44.158Z,45.30
2019-04-27T17:02:08.260Z,45.90
2019-04-27T17:04:35.288Z,45.80
2019-04-27T17:07:03.425Z,46.20
2019-04-27T17:09:30.280Z,47.40
2019-04-27T17:11:59.279Z,46.70
2019-04-27T17:14:34.796Z,46.80
2019-04-27T17:17:08.110Z,45.90
2019-04-27T17:19:39.997Z,47.80
2019-04-27T17:22:04.416Z,48.00
2019-04-27T17:24:42.257Z,49.00
2019-04-27T17:27:06.121Z,48.40
2019-04-27T17:29:34.794Z,48.10
2019-04-27T17:32:02.128Z,48.00
2019-04-27T17:34:29.094Z,48.50
2019-04-27T17:36:58.836Z,47.90
2019-04-27T17:39:25.523Z,47.90
2019-04-27T17:41:52.997Z,47.40
2019-04-27T17:44:23.193Z,47.40
2019-04-27T17:46:51.242Z,47.20
2019-04-27T17:49:18.894Z,47.40
2019-04-27T17:51:45.803Z,47.10
2019-04-27T17:54:12.769Z,47.10
2019-04-27T17:56:48.141Z,46.80
2019-04-27T17:59:10.242Z,47.20
2019-04-27T18:01:36.740Z,47.40
2019-04-27T18:04:06.436Z,47.40
2019-04-27T18:06:45.031Z,47.80
2019-04-27T18:09:13.886Z,48.60
2019-04-27T18:11:40.639Z,48.60
2019-04-27T18:14:11.192Z,49.10
2019-04-27T18:16:37.950Z,49.30
2019-04-27T18:19:09.798Z,49.80
2019-04-27T18:21:38.555Z,49.90
2019-04-27T18:24:08.637Z,50.30
2019-04-27T18:26:49.297Z,50.20
2019-04-27T18:29:14.743Z,50.50
2019-04-27T18:31:41.589Z,51.40
2019-04-27T18:34:14.836Z,52.60
2019-04-27T18:36:37.942Z,53.20
2019-04-27T18:39:10.469Z,53.70
2019-04-27T18:41:37.687Z,54.60
2019-04-27T18:44:06.260Z,55.60
2019-04-27T18:46:38.451Z,56.60
2019-04-27T18:49:08.944Z,57.40
2019-04-27T18:51:40.587Z,57.60
2019-04-27T18:54:08.158Z,57.90
2019-04-27T18:56:38.610Z,58.40
2019-04-27T18:59:03.832Z,58.80
2019-04-27T19:01:30.696Z,59.50
2019-04-27T19:03:58.591Z,59.30
2019-04-27T19:06:25.867Z,59.50
2019-04-27T19:08:52.835Z,60.20
2019-04-27T19:11:19.602Z,60.00
2019-04-27T19:13:48.734Z,61.60
2019-04-27T19:16:15.747Z,61.20
2019-04-27T19:18:43.274Z,61.20
2019-04-27T19:21:23.365Z,61.90
2019-04-27T19:23:50.335Z,61.70
2019-04-27T19:32:04.872Z,62.50
2019-04-27T19:34:31.700Z,62.70
2019-04-27T19:36:59.274Z,62.70
2019-04-27T19:39:26.341Z,63.00
2019-04-27T19:42:00.231Z,63.00
2019-04-27T19:44:22.402Z,62.90
2019-04-27T19:46:49.468Z,62.90
2019-04-27T19:49:16.326Z,62.60
2019-04-27T19:51:43.171Z,62.30
2019-04-27T19:54:10.020Z,62.70
2019-04-27T19:56:38.356Z,62.60
2019-04-27T19:59:08.941Z,62.40
2019-04-27T20:01:38.338Z,62.50
2019-04-27T20:04:08.634Z,62.40
2019-04-27T20:06:35.798Z,62.50
2019-04-27T20:12:17.848Z,62.20
2019-04-27T20:14:56.831Z,61.90
2019-04-27T20:17:48.089Z,61.60
2019-04-27T20:20:15.943Z,62.70
2019-04-27T20:22:42.827Z,61.30
2019-04-27T20:25:11.258Z,61.20
2019-04-27T20:27:45.954Z,61.50
2019-04-27T20:30:21.074Z,61.30
2019-04-27T20:32:48.064Z,60.40
2019-04-27T20:35:15.032Z,59.60
2019-04-27T20:38:01.721Z,60.00
2019-04-27T20:40:28.735Z,58.10
2019-04-27T20:42:55.680Z,57.00
2019-04-27T20:45:22.532Z,57.90
2019-04-27T20:47:52.397Z,56.30
2019-04-27T20:50:17.976Z,56.90
2019-04-27T20:52:46.760Z,56.30
2019-04-27T20:55:13.508Z,55.80
2019-04-27T20:57:41.681Z,54.80
2019-04-27T21:00:11.743Z,55.20
2019-04-27T21:02:54.057Z,55.40
2019-04-27T21:05:40.982Z,55.40
2019-04-27T21:08:11.884Z,56.40
2019-04-27T21:11:01.563Z,55.10
2019-04-27T21:13:28.613Z,54.40
2019-04-27T21:15:55.335Z,54.80
2019-04-27T21:18:22.095Z,54.00
2019-04-27T21:20:49.033Z,53.70
2019-04-27T21:23:15.991Z,55.70
2019-04-27T21:25:42.999Z,54.40
2019-04-27T21:28:17.955Z,55.50
2019-04-27T21:30:38.630Z,54.50
2019-04-27T21:33:05.380Z,54.90
2019-04-27T21:35:34.131Z,55.10
2019-04-27T21:38:03.108Z,56.10
2019-04-27T21:40:30.701Z,54.60
2019-04-27T21:42:57.953Z,54.50
2019-04-27T21:45:24.799Z,54.80
2019-04-27T21:47:52.013Z,54.20
2019-04-27T21:50:20.604Z,54.10
2019-04-27T21:52:49.567Z,55.10
2019-04-27T21:55:18.324Z,55.10
2019-04-27T21:57:45.060Z,55.30
2019-04-27T22:00:51.325Z,54.40
2019-04-27T22:03:21.980Z,56.30
2019-04-27T22:05:48.768Z,54.90
2019-04-27T22:08:15.504Z,55.30
2019-04-27T22:10:42.367Z,55.30
2019-04-27T22:13:09.147Z,55.40
2019-04-27T22:15:36.095Z,55.40
2019-04-27T22:18:02.965Z,55.70
2019-04-27T22:20:32.435Z,55.10
2019-04-27T22:23:07.197Z,56.50
2019-04-27T22:25:36.011Z,55.80
2019-04-27T22:28:03.408Z,55.80
2019-04-27T22:30:31.192Z,55.60
2019-04-27T22:32:59.184Z,55.40
2019-04-27T22:35:26.622Z,56.20
2019-04-27T22:37:53.468Z,55.90
2019-04-27T22:43:35.535Z,55.20
2019-04-27T22:46:03.477Z,55.90
2019-04-27T22:48:31.392Z,55.80
2019-04-27T22:50:58.989Z,55.60
2019-04-27T22:53:25.844Z,54.70
2019-04-27T22:56:13.523Z,55.00
2019-04-27T22:58:56.959Z,53.70
2019-04-27T23:04:13.678Z,54.10
2019-04-27T23:06:41.868Z,53.70
2019-04-27T23:09:09.543Z,54.00
2019-04-27T23:11:38.175Z,53.90
2019-04-27T23:14:18.620Z,53.00
2019-04-27T23:19:32.836Z,53.70
2019-04-27T23:22:00.771Z,52.80
2019-04-27T23:24:27.885Z,52.60
2019-04-27T23:26:54.759Z,52.60
2019-04-27T23:29:21.632Z,52.00
2019-04-27T23:31:50.471Z,52.80
2019-04-27T23:34:17.285Z,51.90
2019-04-27T23:36:44.409Z,52.30
2019-04-27T23:39:11.867Z,53.50
2019-04-27T23:41:38.859Z,53.90
2019-04-27T23:44:05.706Z,53.80
2019-04-27T23:46:32.632Z,53.20
2019-04-27T23:49:01.405Z,52.40
2019-04-27T23:51:39.375Z,53.80
2019-04-27T23:54:06.322Z,52.50
2019-04-27T23:56:33.177Z,54.10
2019-04-27T23:59:00.008Z,52.70
